Time;durP1;ratioP1;P1;durP2;ratioP2;P2;SDS_P1;SDS_P2;PMS_P1;PMS_P2;Temp;Humidity;BMP_temperature;BMP_pressure;BME280_temperature;BME280_humidity;BME280_pressure;Samples;Min_cycle;Max_cycle;Signal;HPM_P1;HPM_P2
2023/05/25 00:00:53;;;;;;;;;;;;;;;9.92;70.43;102511.53;5052816;28;20406;-71
2023/05/25 00:03:19;;;;;;;;;;;;;;;9.92;71.33;102508.91;5053106;28;19971;-71
2023/05/25 00:05:44;;;;;;;;;;;;;;;9.90;71.74;102514.16;5053106;28;19978;-71
2023/05/25 00:08:10;;;;;;;;;;;;;;;9.90;70.95;102516.81;5053126;28;19928;-71
2023/05/25 00:10:35;;;;;;;;;;;;;;;9.90;73.15;102511.53;5051714;28;19917;-71
2023/05/25 00:13:00;;;;;;;;;;;;;;;9.92;73.02;102513.31;5053010;28;19928;-72
2023/05/25 00:15:26;;;;;;;;;;;;;;;9.90;72.07;102508.00;5052783;28;19921;-71
2023/05/25 00:17:53;;;;;;;;;;;;;;;9.87;72.20;102510.63;5052837;28;19917;-72
2023/05/25 00:20:19;;;;;;;;;;;;;;;9.84;73.41;102508.84;5051033;28;19983;-71
2023/05/25 00:22:44;;;;;;;;;;;;;;;9.85;70.68;102512.38;5053041;28;19920;-71
2023/05/25 00:25:10;;;;;;;;;;;;;;;9.86;73.28;102515.00;5052629;28;19982;-72
2023/05/25 00:27:35;;;;;;;;;;;;;;;9.87;72.37;102521.22;5050947;28;20073;-72
2023/05/25 00:30:01;;;;;;;;;;;;;;;9.86;73.54;102508.84;5052554;28;19927;-72
2023/05/25 00:32:26;;;;;;;;;;;;;;;9.84;73.69;102514.13;5051508;28;19921;-72
2023/05/25 00:34:52;;;;;;;;;;;;;;;9.82;73.94;102510.59;5056809;28;20368;-72
2023/05/25 00:37:18;;;;;;;;;;;;;;;9.81;74.43;102519.38;5051631;28;19927;-72
2023/05/25 00:39:43;;;;;;;;;;;;;;;9.78;73.18;102514.06;5052213;28;19921;-72
2023/05/25 00:42:09;;;;;;;;;;;;;;;9.75;73.24;102522.00;5052523;28;20391;-72
2023/05/25 00:44:35;;;;;;;;;;;;;;;9.69;70.64;102514.91;5052289;28;19925;-72
2023/05/25 00:47:01;;;;;;;;;;;;;;;9.69;73.06;102508.69;5052453;28;19932;-72
2023/05/25 00:49:29;;;;;;;;;;;;;;;9.67;73.68;102516.63;5050938;28;19920;-72
2023/05/25 00:51:55;;;;;;;;;;;;;;;9.69;72.84;102514.91;5051086;28;19928;-72
2023/05/25 00:57:06;;;;;;;;;;;;;;;9.65;72.38;102515.72;5044345;28;19916;-75
2023/05/25 00:59:35;;;;;;;;;;;;;;;9.63;72.45;102511.31;5040728;28;19916;-77
2023/05/25 01:02:05;;;;;;;;;;;;;;;9.60;73.65;102516.56;5048028;28;20295;-77
2023/05/25 01:04:33;;;;;;;;;;;;;;;9.57;73.52;102514.78;5049768;28;19926;-76
2023/05/25 01:07:00;;;;;;;;;;;;;;;9.53;73.68;102518.25;5051615;28;19974;-76
2023/05/25 01:09:26;;;;;;;;;;;;;;;9.53;73.95;102522.69;5050327;28;20372;-77
2023/05/25 01:11:52;;;;;;;;;;;;;;;9.51;73.79;102520.00;5036386;28;20355;-76
2023/05/25 01:14:20;;;;;;;;;;;;;;;9.48;72.54;102519.97;5051758;28;19999;-77
2023/05/25 01:16:45;;;;;;;;;;;;;;;9.45;72.53;102517.31;5051905;28;19917;-77
2023/05/25 01:19:11;;;;;;;;;;;;;;;9.45;73.22;102522.59;5051876;28;19939;-76
2023/05/25 01:21:41;;;;;;;;;;;;;;;9.40;72.63;102525.19;5051858;28;20291;-76
2023/05/25 01:24:22;;;;;;;;;;;;;;;9.39;73.31;102531.34;5049953;28;19984;-76
2023/05/25 01:26:53;;;;;;;;;;;;;;;9.37;74.37;102530.47;5063655;28;19991;-74
2023/05/25 01:29:19;;;;;;;;;;;;;;;9.36;74.12;102535.72;5040006;28;19917;-76
2023/05/25 01:31:46;;;;;;;;;;;;;;;9.33;74.36;102539.22;5051692;28;19913;-77
2023/05/25 01:34:12;;;;;;;;;;;;;;;9.31;73.41;102550.66;5036569;28;20299;-76
2023/05/25 01:36:38;;;;;;;;;;;;;;;9.28;72.86;102545.34;5067006;28;19916;-77
2023/05/25 01:39:04;;;;;;;;;;;;;;;9.26;73.33;102540.91;5049886;28;19936;-76
2023/05/25 01:41:30;;;;;;;;;;;;;;;9.22;74.26;102547.06;5049881;28;20174;-77
2023/05/25 01:43:55;;;;;;;;;;;;;;;9.22;73.63;102544.41;5049944;28;19921;-76
2023/05/25 01:46:31;;;;;;;;;;;;;;;9.23;74.67;102543.53;5050288;28;19921;-77
2023/05/25 01:49:07;;;;;;;;;;;;;;;9.23;73.92;102543.53;5050271;28;20033;-77
2023/05/25 01:51:38;;;;;;;;;;;;;;;9.19;73.17;102547.00;5051982;28;19999;-77
2023/05/25 01:54:10;;;;;;;;;;;;;;;9.16;73.05;102548.72;5050907;28;19923;-77
2023/05/25 01:56:37;;;;;;;;;;;;;;;9.12;73.15;102550.44;5051377;28;19923;-77
2023/05/25 01:59:03;;;;;;;;;;;;;;;9.09;73.92;102557.44;5033334;28;19931;-77
2023/05/25 02:01:32;;;;;;;;;;;;;;;9.07;73.68;102553.91;5040513;28;19925;-77
2023/05/25 02:03:58;;;;;;;;;;;;;;;9.02;72.97;102549.44;5013748;28;19926;-77
2023/05/25 02:06:23;;;;;;;;;;;;;;;8.99;73.27;102548.53;5044601;28;19917;-77
2023/05/25 02:08:48;;;;;;;;;;;;;;;8.97;73.71;102551.13;5043705;28;19925;-77
2023/05/25 02:11:15;;;;;;;;;;;;;;;8.94;74.39;102545.81;5030271;28;19921;-77
2023/05/25 02:13:40;;;;;;;;;;;;;;;8.93;73.54;102549.34;5048296;28;19928;-77
2023/05/25 02:16:06;;;;;;;;;;;;;;;8.86;73.47;102544.84;5051353;28;19986;-77
2023/05/25 02:18:31;;;;;;;;;;;;;;;8.82;73.57;102545.66;5041583;28;19912;-78
2023/05/25 02:20:57;;;;;;;;;;;;;;;8.80;73.78;102552.69;5055152;28;19945;-75
2023/05/25 02:23:23;;;;;;;;;;;;;;;8.79;73.18;102549.16;5053448;28;19970;-74
2023/05/25 02:25:50;;;;;;;;;;;;;;;8.76;73.37;102554.41;5053716;28;19960;-75
2023/05/25 02:28:16;;;;;;;;;;;;;;;8.74;73.20;102550.84;5054711;28;19927;-77
2023/05/25 02:30:41;;;;;;;;;;;;;;;8.73;74.51;102545.53;5053653;28;19917;-77
2023/05/25 02:33:06;;;;;;;;;;;;;;;8.72;73.89;102542.03;5053317;28;19921;-77
2023/05/25 02:35:33;;;;;;;;;;;;;;;8.70;73.44;102545.50;5039379;28;19970;-77
2023/05/25 02:37:59;;;;;;;;;;;;;;;8.64;73.54;102540.16;5053274;28;20016;-77
2023/05/25 02:40:25;;;;;;;;;;;;;;;8.59;75.17;102546.25;5052985;28;19925;-77
2023/05/25 02:42:51;;;;;;;;;;;;;;;8.55;73.90;102548.84;5053244;28;19921;-77
2023/05/25 02:45:17;;;;;;;;;;;;;;;8.52;74.73;102546.16;5040705;28;20399;-77
2023/05/25 02:47:42;;;;;;;;;;;;;;;8.50;74.08;102545.25;5052838;28;19921;-77
2023/05/25 02:50:08;;;;;;;;;;;;;;;8.44;73.35;102539.91;5033305;28;19941;-77
2023/05/25 02:52:39;;;;;;;;;;;;;;;8.39;73.78;102545.97;5047321;28;20067;-77
2023/05/25 02:55:05;;;;;;;;;;;;;;;8.36;73.91;102547.66;5052987;28;20007;-77
2023/05/25 02:57:37;;;;;;;;;;;;;;;8.33;74.93;102550.25;5052872;28;20086;-77
2023/05/25 03:00:06;;;;;;;;;;;;;;;8.34;74.46;102550.28;5035189;28;20023;-77
2023/05/25 03:02:32;;;;;;;;;;;;;;;8.31;74.55;102552.88;5038165;28;20291;-77
2023/05/25 03:04:58;;;;;;;;;;;;;;;8.28;73.57;102551.94;5053206;28;19927;-77
2023/05/25 03:07:27;;;;;;;;;;;;;;;8.21;73.50;102550.06;5048713;28;20280;-77
2023/05/25 03:09:53;;;;;;;;;;;;;;;8.17;74.32;102554.41;5052692;28;19972;-77
2023/05/25 03:12:20;;;;;;;;;;;;;;;8.12;74.75;102556.97;5026346;28;19936;-77
2023/05/25 03:14:45;;;;;;;;;;;;;;;8.10;73.66;102563.09;5048357;28;19912;-77
2023/05/25 03:17:11;;;;;;;;;;;;;;;8.12;76.49;102569.28;5035915;28;19921;-77
2023/05/25 03:19:36;;;;;;;;;;;;;;;8.14;76.41;102571.09;5053924;28;19927;-77
2023/05/25 03:22:02;;;;;;;;;;;;;;;8.14;75.90;102572.84;5033198;28;20332;-77
2023/05/25 03:24:28;;;;;;;;;;;;;;;8.12;74.90;102578.09;5040562;28;19923;-77
2023/05/25 03:26:57;;;;;;;;;;;;;;;8.09;75.30;102578.03;5050530;28;19923;-77
2023/05/25 03:29:22;;;;;;;;;;;;;;;8.08;76.28;102586.81;5041611;28;19921;-76
2023/05/25 03:31:48;;;;;;;;;;;;;;;8.09;77.24;102578.03;5048558;28;20382;-77
2023/05/25 03:34:13;;;;;;;;;;;;;;;8.10;76.09;102578.94;5053183;28;19923;-75
2023/05/25 03:36:44;;;;;;;;;;;;;;;8.08;76.70;102586.81;5035349;28;19974;-75
2023/05/25 03:39:10;;;;;;;;;;;;;;;8.06;76.25;102588.56;5035557;28;19924;-75
2023/05/25 03:41:36;;;;;;;;;;;;;;;8.04;75.75;102600.84;5051822;28;19920;-75
2023/05/25 03:44:01;;;;;;;;;;;;;;;8.01;76.00;102594.59;5051411;28;20083;-75
2023/05/25 03:46:26;;;;;;;;;;;;;;;7.97;75.31;102597.19;5051766;28;19916;-75
2023/05/25 03:48:55;;;;;;;;;;;;;;;7.93;76.84;102600.63;5032126;28;19928;-75
2023/05/25 03:51:20;;;;;;;;;;;;;;;7.87;75.63;102608.44;5051077;28;19921;-75
2023/05/25 03:53:45;;;;;;;;;;;;;;;7.86;75.96;102605.78;5051432;28;19920;-75
2023/05/25 03:56:11;;;;;;;;;;;;;;;7.87;77.03;102603.19;5051598;28;20356;-75
2023/05/25 03:58:36;;;;;;;;;;;;;;;7.87;76.51;102605.81;5052736;28;19921;-75
2023/05/25 04:01:02;;;;;;;;;;;;;;;7.86;76.62;102600.50;5050755;28;19967;-75
2023/05/25 04:03:28;;;;;;;;;;;;;;;7.83;76.07;102605.72;5035218;28;19924;-75
2023/05/25 04:05:53;;;;;;;;;;;;;;;7.84;76.93;102600.50;5060806;28;19999;-75
2023/05/25 04:08:18;;;;;;;;;;;;;;;7.85;76.52;102598.72;5052534;28;19921;-75
2023/05/25 04:10:45;;;;;;;;;;;;;;;7.85;77.34;102601.38;5052844;28;19916;-75
2023/05/25 04:13:10;;;;;;;;;;;;;;;7.84;77.09;102594.31;5052272;28;19935;-75
2023/05/25 04:15:36;;;;;;;;;;;;;;;7.84;76.95;102596.94;5034796;28;20003;-75
2023/05/25 04:18:08;;;;;;;;;;;;;;;7.86;77.45;102592.59;5038759;28;19933;-75
2023/05/25 04:20:34;;;;;;;;;;;;;;;7.86;77.88;102606.69;5051138;28;20763;-75
2023/05/25 04:22:59;;;;;;;;;;;;;;;7.87;77.95;102603.19;5051158;28;19921;-75
2023/05/25 04:25:25;;;;;;;;;;;;;;;7.89;77.11;102604.09;5037194;28;20016;-75
2023/05/25 04:27:52;;;;;;;;;;;;;;;7.94;79.04;102612.97;5039081;28;19925;-75
2023/05/25 04:30:30;;;;;;;;;;;;;;;7.99;78.07;102613.06;5050144;28;19928;-75
2023/05/25 04:33:05;;;;;;;;;;;;;;;8.01;78.17;102616.63;5031062;28;19924;-75
2023/05/25 04:35:59;;;;;;;;;;;;;;;8.04;79.18;102618.41;5039071;28;19917;-75
2023/05/25 04:38:26;;;;;;;;;;;;;;;8.08;79.15;102625.50;5032182;28;20040;-75
2023/05/25 04:40:56;;;;;;;;;;;;;;;8.12;78.45;102622.06;5049664;28;20442;-75
2023/05/25 04:43:24;;;;;;;;;;;;;;;8.13;78.52;102619.44;5050694;28;19929;-75
2023/05/25 04:45:53;;;;;;;;;;;;;;;8.17;79.08;102613.34;5051995;28;19942;-75
2023/05/25 04:48:19;;;;;;;;;;;;;;;8.20;79.38;102615.16;5050732;28;19924;-75
2023/05/25 04:50:44;;;;;;;;;;;;;;;8.23;79.14;102614.31;5034224;28;19925;-75
2023/05/25 04:53:10;;;;;;;;;;;;;;;8.28;80.30;102621.44;5050165;28;19925;-75
2023/05/25 04:55:35;;;;;;;;;;;;;;;8.33;80.01;102624.16;5030789;28;19920;-75
2023/05/25 04:58:02;;;;;;;;;;;;;;;8.39;80.82;102622.53;5048224;28;19923;-75
2023/05/25 05:00:27;;;;;;;;;;;;;;;8.46;80.05;102634.09;5031980;28;20703;-75
2023/05/25 05:02:55;;;;;;;;;;;;;;;8.55;82.06;102635.97;5040494;28;20019;-75
2023/05/25 05:05:21;;;;;;;;;;;;;;;8.64;81.19;102640.53;5042266;28;19917;-75
2023/05/25 05:07:47;;;;;;;;;;;;;;;8.71;81.31;102635.34;5034753;28;19928;-75
2023/05/25 05:10:12;;;;;;;;;;;;;;;8.79;81.19;102635.44;5050403;28;19916;-75
2023/05/25 05:12:42;;;;;;;;;;;;;;;8.89;81.71;102632.06;5040029;28;19963;-75
2023/05/25 05:15:08;;;;;;;;;;;;;;;8.99;82.53;102639.25;5049214;28;19916;-75
2023/05/25 05:17:33;;;;;;;;;;;;;;;9.04;83.07;102640.19;5039848;28;20295;-75
2023/05/25 05:19:59;;;;;;;;;;;;;;;9.11;82.25;102642.94;5065515;28;19987;-75
2023/05/25 05:22:24;;;;;;;;;;;;;;;9.19;81.11;102638.63;5033796;28;19921;-75
2023/05/25 05:24:50;;;;;;;;;;;;;;;9.28;81.73;102646.69;5051461;28;19947;-75
2023/05/25 05:27:21;;;;;;;;;;;;;;;9.35;82.70;102643.25;5050048;28;19931;-75
2023/05/25 05:29:52;;;;;;;;;;;;;;;9.42;82.13;102647.75;5050280;28;19921;-75
2023/05/25 05:32:18;;;;;;;;;;;;;;;9.53;82.64;102646.97;5050041;28;19979;-75
2023/05/25 05:34:43;;;;;;;;;;;;;;;9.64;81.93;102653.25;5038297;28;20267;-75
2023/05/25 05:37:27;;;;;;;;;;;;;;;9.75;81.72;102648.09;5036536;28;20067;-75
2023/05/25 05:39:52;;;;;;;;;;;;;;;9.81;79.15;102656.97;5050065;28;19970;-75
2023/05/25 05:42:18;;;;;;;;;;;;;;;9.88;83.06;102653.50;5047081;28;19921;-75
2023/05/25 05:44:43;;;;;;;;;;;;;;;9.96;81.91;102656.22;5049897;28;19916;-75
2023/05/25 05:47:08;;;;;;;;;;;;;;;10.06;81.79;102659.84;5033295;28;19927;-76
2023/05/25 05:49:34;;;;;;;;;;;;;;;10.15;80.27;102664.38;5034633;28;20011;-76
2023/05/25 05:52:00;;;;;;;;;;;;;;;10.24;79.71;102673.28;5048568;28;19949;-76
2023/05/25 05:54:29;;;;;;;;;;;;;;;10.31;81.29;102672.50;5053622;28;20360;-75
2023/05/25 05:56:58;;;;;;;;;;;;;;;10.39;81.67;102675.19;5037708;28;19959;-75
2023/05/25 05:59:24;;;;;;;;;;;;;;;10.46;81.19;102674.38;5053197;28;19964;-75
2023/05/25 06:01:49;;;;;;;;;;;;;;;10.52;79.99;102676.19;5052050;28;20383;-75
2023/05/25 06:04:15;;;;;;;;;;;;;;;10.61;80.91;102678.00;5053528;28;19925;-75
2023/05/25 06:06:41;;;;;;;;;;;;;;;10.68;79.97;102687.75;5049146;28;19921;-75
2023/05/25 06:09:07;;;;;;;;;;;;;;;10.75;81.27;102686.94;5026130;28;20168;-76
2023/05/25 06:11:35;;;;;;;;;;;;;;;10.86;80.81;102692.34;5050871;28;19990;-75
2023/05/25 06:14:01;;;;;;;;;;;;;;;10.92;80.64;102685.28;5043681;28;20016;-76
2023/05/25 06:16:26;;;;;;;;;;;;;;;10.98;79.92;102685.34;5030642;28;20432;-76
2023/05/25 06:18:51;;;;;;;;;;;;;;;11.06;77.93;102685.38;5050989;28;20001;-76
2023/05/25 06:21:17;;;;;;;;;;;;;;;11.13;78.60;102687.19;5039994;28;19953;-76
2023/05/25 06:23:42;;;;;;;;;;;;;;;11.24;79.14;102687.22;5052607;28;20024;-76
2023/05/25 06:26:08;;;;;;;;;;;;;;;11.34;79.55;102683.75;5053311;28;20183;-76
2023/05/25 06:28:33;;;;;;;;;;;;;;;11.41;80.20;102689.97;5052967;28;20185;-75
2023/05/25 06:30:59;;;;;;;;;;;;;;;11.48;77.79;102690.88;5053303;28;19996;-76
2023/05/25 06:33:24;;;;;;;;;;;;;;;11.55;78.81;102692.69;5052936;28;19923;-76
2023/05/25 06:35:51;;;;;;;;;;;;;;;11.61;78.20;102693.56;5046265;28;20002;-76
2023/05/25 06:38:16;;;;;;;;;;;;;;;11.72;78.42;102696.28;5062975;28;19916;-76
2023/05/25 06:40:42;;;;;;;;;;;;;;;11.82;78.64;102700.72;5052868;28;20333;-76
2023/05/25 06:43:07;;;;;;;;;;;;;;;11.89;78.95;102709.59;5054236;28;20012;-75
2023/05/25 06:45:51;;;;;;;;;;;;;;;11.98;77.95;102704.31;5052822;28;20063;-75
2023/05/25 06:48:18;;;;;;;;;;;;;;;12.04;76.55;102706.09;5052914;28;19940;-75
2023/05/25 06:50:44;;;;;;;;;;;;;;;12.13;77.58;102707.91;5052968;28;19921;-75
2023/05/25 06:53:10;;;;;;;;;;;;;;;12.16;77.99;102710.56;5032781;28;19976;-75
2023/05/25 06:55:35;;;;;;;;;;;;;;;12.19;77.45;102710.56;5044786;28;19956;-75
2023/05/25 06:58:01;;;;;;;;;;;;;;;12.27;77.53;102709.69;5053990;28;19917;-75
2023/05/25 07:00:26;;;;;;;;;;;;;;;12.39;77.35;102719.44;5052110;28;19928;-75
2023/05/25 07:02:51;;;;;;;;;;;;;;;12.54;77.02;102713.25;5053797;28;19921;-75
2023/05/25 07:05:17;;;;;;;;;;;;;;;12.66;76.24;102713.25;5053071;28;19925;-75
2023/05/25 07:07:42;;;;;;;;;;;;;;;12.74;75.82;102715.91;5047619;28;19943;-76
2023/05/25 07:10:08;;;;;;;;;;;;;;;12.92;77.41;102717.63;5035857;28;19942;-75
2023/05/25 07:12:33;;;;;;;;;;;;;;;13.07;76.36;102716.72;5053668;28;19924;-75
2023/05/25 07:14:58;;;;;;;;;;;;;;;13.22;74.81;102719.34;5053817;28;20374;-75
2023/05/25 07:17:25;;;;;;;;;;;;;;;13.22;74.02;102715.78;5053596;28;19920;-75
2023/05/25 07:19:50;;;;;;;;;;;;;;;13.16;74.10;102719.38;5035622;28;20007;-75
2023/05/25 07:22:17;;;;;;;;;;;;;;;13.11;73.42;102716.72;5053605;28;20028;-75
2023/05/25 07:24:46;;;;;;;;;;;;;;;13.13;73.95;102711.41;5053729;28;19924;-75
2023/05/25 07:27:11;;;;;;;;;;;;;;;13.26;71.20;102717.56;5052215;28;19920;-76
2023/05/25 07:29:37;;;;;;;;;;;;;;;13.46;71.01;102717.53;5052233;28;19921;-75
2023/05/25 07:32:02;;;;;;;;;;;;;;;13.67;73.27;102725.41;5053351;28;19928;-75
2023/05/25 07:34:28;;;;;;;;;;;;;;;13.84;72.81;102729.78;5053318;28;19921;-75
2023/05/25 07:36:53;;;;;;;;;;;;;;;13.99;72.59;102719.03;5053475;28;19921;-75
2023/05/25 07:39:18;;;;;;;;;;;;;;;14.07;71.54;102725.22;5052967;28;20371;-75
2023/05/25 07:41:44;;;;;;;;;;;;;;;13.98;70.25;102730.59;5053221;28;19927;-76
2023/05/25 07:44:09;;;;;;;;;;;;;;;13.97;71.18;102731.47;5052998;28;19917;-75
2023/05/25 07:46:35;;;;;;;;;;;;;;;14.04;70.93;102738.53;5053181;28;20003;-76
2023/05/25 07:49:02;;;;;;;;;;;;;;;14.06;70.68;102728.75;5034991;28;19917;-75
2023/05/25 07:51:28;;;;;;;;;;;;;;;14.10;70.79;102721.66;5053604;28;20378;-75
2023/05/25 07:53:55;;;;;;;;;;;;;;;14.20;70.56;102729.56;5052694;28;19996;-75
2023/05/25 07:56:20;;;;;;;;;;;;;;;14.19;69.90;102727.78;5052800;28;19925;-75
2023/05/25 07:58:46;;;;;;;;;;;;;;;14.18;69.50;102735.78;5052873;28;19933;-75
2023/05/25 08:01:11;;;;;;;;;;;;;;;14.17;69.74;102739.38;5050773;28;19983;-75
2023/05/25 08:03:37;;;;;;;;;;;;;;;14.16;69.44;102735.78;5032905;28;20018;-75
2023/05/25 08:06:02;;;;;;;;;;;;;;;14.24;69.31;102741.06;5040566;28;19921;-75
2023/05/25 08:08:28;;;;;;;;;;;;;;;14.38;69.98;102746.31;5052421;28;19920;-75
2023/05/25 08:10:53;;;;;;;;;;;;;;;14.56;68.43;102740.88;5039582;28;19917;-76
2023/05/25 08:13:18;;;;;;;;;;;;;;;14.65;68.22;102733.69;5050268;28;20296;-76
2023/05/25 08:15:44;;;;;;;;;;;;;;;14.63;67.98;102747.03;5051334;28;19920;-75
2023/05/25 08:18:09;;;;;;;;;;;;;;;14.61;68.24;102740.81;5050936;28;19978;-75
2023/05/25 08:20:35;;;;;;;;;;;;;;;14.71;68.36;102734.53;5052685;28;19929;-75
2023/05/25 08:23:00;;;;;;;;;;;;;;;14.80;68.04;102737.09;5052285;28;19920;-75
2023/05/25 08:25:26;;;;;;;;;;;;;;;14.93;67.49;102750.31;5052442;28;19958;-76
2023/05/25 08:27:51;;;;;;;;;;;;;;;15.15;67.57;102746.53;5050977;28;19913;-76
2023/05/25 08:30:17;;;;;;;;;;;;;;;15.24;66.38;102749.09;5051209;28;19921;-76
2023/05/25 08:32:42;;;;;;;;;;;;;;;15.20;66.65;102752.69;5041547;28;20038;-76
2023/05/25 08:35:08;;;;;;;;;;;;;;;15.17;65.91;102751.88;5032506;28;20018;-76
2023/05/25 08:37:34;;;;;;;;;;;;;;;15.11;65.34;102752.81;5043333;28;19917;-76
2023/05/25 08:40:01;;;;;;;;;;;;;;;15.10;66.24;102761.72;5024421;28;19975;-76
2023/05/25 08:42:27;;;;;;;;;;;;;;;15.17;66.03;102760.75;5051546;28;20379;-75
2023/05/25 08:44:52;;;;;;;;;;;;;;;15.22;65.68;102760.69;5052068;28;19923;-75
2023/05/25 08:47:21;;;;;;;;;;;;;;;15.23;65.51;102765.13;5050581;28;20015;-76
2023/05/25 08:49:47;;;;;;;;;;;;;;;15.33;65.36;102758.81;5052185;28;19932;-75
2023/05/25 08:52:13;;;;;;;;;;;;;;;15.66;64.38;102752.19;5051815;28;19920;-75
2023/05/25 08:54:41;;;;;;;;;;;;;;;15.79;63.90;102752.94;5051711;28;19917;-74
2023/05/25 08:57:11;;;;;;;;;;;;;;;15.82;62.53;102752.88;5052099;28;20008;-75
2023/05/25 08:59:50;;;;;;;;;;;;;;;15.74;62.51;102759.25;5049768;28;19917;-74
2023/05/25 09:02:34;;;;;;;;;;;;;;;15.62;62.86;102765.59;5051382;28;19928;-74
2023/05/25 09:05:00;;;;;;;;;;;;;;;15.52;63.58;102769.28;5036534;28;19917;-74
2023/05/25 09:07:26;;;;;;;;;;;;;;;15.48;64.18;102774.66;5051496;28;19920;-74
2023/05/25 09:09:52;;;;;;;;;;;;;;;15.49;63.93;102772.84;5050456;28;19917;-74
2023/05/25 09:12:19;;;;;;;;;;;;;;;15.46;62.90;102772.91;5050270;28;20233;-74
2023/05/25 09:14:46;;;;;;;;;;;;;;;15.47;63.25;102777.31;5051575;28;19916;-74
2023/05/25 09:17:13;;;;;;;;;;;;;;;15.47;63.21;102775.53;5051786;28;19974;-76
2023/05/25 09:19:38;;;;;;;;;;;;;;;15.45;63.52;102779.13;5051298;28;19913;-75
2023/05/25 09:22:04;;;;;;;;;;;;;;;15.39;63.27;102777.41;5051774;28;19932;-75
2023/05/25 09:24:29;;;;;;;;;;;;;;;15.33;63.39;102776.59;5050142;28;20299;-75
2023/05/25 09:26:55;;;;;;;;;;;;;;;15.30;63.12;102776.63;5053677;28;20029;-74
2023/05/25 09:29:21;;;;;;;;;;;;;;;15.27;63.19;102774.88;5058151;28;20360;-73
2023/05/25 09:31:46;;;;;;;;;;;;;;;15.29;63.06;102772.22;5056989;28;19924;-74
2023/05/25 09:34:12;;;;;;;;;;;;;;;15.32;63.06;102774.84;5058187;28;19924;-74
2023/05/25 09:36:40;;;;;;;;;;;;;;;15.33;62.70;102772.16;5058101;28;19917;-74
2023/05/25 09:39:07;;;;;;;;;;;;;;;15.33;61.86;102780.16;5045982;28;19944;-73
2023/05/25 09:41:32;;;;;;;;;;;;;;;15.39;62.46;102782.75;5054879;28;20008;-73
2023/05/25 09:43:58;;;;;;;;;;;;;;;15.44;62.12;102780.03;5056914;28;20032;-75
2023/05/25 09:46:24;;;;;;;;;;;;;;;15.49;62.32;102779.06;5058008;28;19920;-75
2023/05/25 09:48:52;;;;;;;;;;;;;;;15.58;60.91;102772.75;5056923;28;20022;-75
2023/05/25 09:51:17;;;;;;;;;;;;;;;15.66;60.38;102775.34;5058265;28;19916;-75
2023/05/25 09:53:43;;;;;;;;;;;;;;;15.76;60.82;102782.34;5057946;28;20374;-75
2023/05/25 09:56:10;;;;;;;;;;;;;;;15.86;60.83;102778.66;5056857;28;19912;-75
2023/05/25 09:58:36;;;;;;;;;;;;;;;15.95;58.36;102775.00;5057643;28;20434;-74
2023/05/25 10:01:01;;;;;;;;;;;;;;;16.05;58.66;102776.63;5055852;28;19925;-75
2023/05/25 10:03:26;;;;;;;;;;;;;;;16.17;58.94;102782.69;5056535;28;20402;-75
2023/05/25 10:05:53;;;;;;;;;;;;;;;16.28;59.60;102784.31;5054062;28;20383;-74
2023/05/25 10:08:20;;;;;;;;;;;;;;;16.42;59.31;102775.19;5056297;28;19932;-74
2023/05/25 10:10:48;;;;;;;;;;;;;;;16.58;59.15;102767.81;5058068;28;19924;-74
2023/05/25 10:13:15;;;;;;;;;;;;;;;16.86;59.91;102776.28;5057666;28;19923;-74
2023/05/25 10:15:44;;;;;;;;;;;;;;;17.05;57.98;102777.75;5057939;28;19924;-74
2023/05/25 10:18:11;;;;;;;;;;;;;;;17.18;57.77;102773.94;5057647;28;20031;-74
2023/05/25 10:20:37;;;;;;;;;;;;;;;17.26;56.92;102772.88;5057717;28;19920;-75
2023/05/25 10:23:10;;;;;;;;;;;;;;;17.41;57.91;102777.97;5056469;28;19944;-75
2023/05/25 10:25:35;;;;;;;;;;;;;;;17.54;56.65;102779.47;5044529;28;20003;-75
2023/05/25 10:28:01;;;;;;;;;;;;;;;17.57;55.61;102775.84;5057766;28;19963;-74
2023/05/25 10:30:27;;;;;;;;;;;;;;;17.55;54.07;102777.69;5057573;28;19947;-75
2023/05/25 10:32:56;;;;;;;;;;;;;;;17.59;55.28;102774.03;5057590;28;19921;-74
2023/05/25 10:35:22;;;;;;;;;;;;;;;17.63;57.14;102779.31;5057629;28;19920;-74
2023/05/25 10:37:50;;;;;;;;;;;;;;;17.70;55.45;102780.03;5056742;28;20268;-73
2023/05/25 10:40:15;;;;;;;;;;;;;;;17.88;56.83;102783.28;5052173;28;19920;-74
2023/05/25 10:42:44;;;;;;;;;;;;;;;18.16;56.24;102778.19;5035861;28;21488;-74
2023/05/25 10:45:09;;;;;;;;;;;;;;;18.36;55.50;102772.38;5054399;28;19924;-74
2023/05/25 10:47:40;;;;;;;;;;;;;;;18.43;54.23;102774.88;5054141;28;20466;-73
2023/05/25 10:50:17;;;;;;;;;;;;;;;18.50;53.19;102780.09;5054432;28;19928;-74
2023/05/25 10:52:42;;;;;;;;;;;;;;;18.84;53.93;102782.81;5053951;28;19923;-74
2023/05/25 10:55:08;;;;;;;;;;;;;;;19.11;52.23;102778.53;5054157;28;20011;-73
2023/05/25 10:57:33;;;;;;;;;;;;;;;19.07;52.34;102780.44;5053883;28;19969;-73
2023/05/25 11:00:05;;;;;;;;;;;;;;;18.95;53.01;102777.19;5052122;28;19992;-74
2023/05/25 11:02:52;;;;;;;;;;;;;;;18.77;52.52;102774.06;5049484;28;19921;-73
2023/05/25 11:05:26;;;;;;;;;;;;;;;18.69;54.10;102782.28;5041766;28;19927;-73
2023/05/25 11:07:52;;;;;;;;;;;;;;;18.69;54.41;102776.00;5048851;28;19917;-73
2023/05/25 11:10:38;;;;;;;;;;;;;;;18.71;51.57;102758.06;5053797;28;19936;-74
2023/05/25 11:13:20;;;;;;;;;;;;;;;18.69;54.71;102768.88;5052043;28;20368;-73
2023/05/25 11:15:46;;;;;;;;;;;;;;;18.72;53.94;102767.00;5053779;28;20362;-73
2023/05/25 11:18:15;;;;;;;;;;;;;;;18.67;54.20;102770.72;5049737;28;19917;-73
2023/05/25 11:20:40;;;;;;;;;;;;;;;18.66;54.14;102773.41;5053713;28;19929;-73
2023/05/25 11:23:21;;;;;;;;;;;;;;;18.62;54.45;102772.63;5053287;28;19966;-73
2023/05/25 11:25:47;;;;;;;;;;;;;;;18.66;54.03;102768.06;5053660;28;20011;-73
2023/05/25 11:28:12;;;;;;;;;;;;;;;18.77;52.46;102767.81;5053184;28;20299;-73
2023/05/25 11:30:39;;;;;;;;;;;;;;;18.83;53.79;102755.13;5053334;28;20344;-73
2023/05/25 11:33:06;;;;;;;;;;;;;;;18.95;54.12;102763.78;5053342;28;19916;-73
2023/05/25 11:35:32;;;;;;;;;;;;;;;19.04;54.38;102751.00;5021624;28;19921;-73
2023/05/25 11:37:59;;;;;;;;;;;;;;;19.06;54.34;102748.25;5053406;28;20280;-73
2023/05/25 11:40:28;;;;;;;;;;;;;;;19.06;53.71;102746.44;5052762;28;19921;-72
2023/05/25 11:42:54;;;;;;;;;;;;;;;19.22;53.02;102741.53;5053247;28;20415;-73
2023/05/25 11:45:20;;;;;;;;;;;;;;;19.50;52.77;102743.44;5053113;28;19923;-73
2023/05/25 11:47:46;;;;;;;;;;;;;;;19.76;51.86;102743.59;5048090;28;19927;-73
2023/05/25 11:50:18;;;;;;;;;;;;;;;19.85;51.47;102741.53;5031717;28;19921;-73
2023/05/25 11:52:43;;;;;;;;;;;;;;;19.87;51.30;102735.19;5048866;28;19931;-73
2023/05/25 11:55:10;;;;;;;;;;;;;;;19.85;49.90;102736.16;5051718;28;19921;-73
2023/05/25 11:57:36;;;;;;;;;;;;;;;19.77;51.49;102733.72;5052338;28;19932;-74
2023/05/25 12:00:05;;;;;;;;;;;;;;;19.70;50.95;102730.31;5051039;28;20008;-73
2023/05/25 12:02:39;;;;;;;;;;;;;;;19.60;49.62;102728.81;5051074;28;19920;-73
2023/05/25 12:05:06;;;;;;;;;;;;;;;19.49;51.13;102722.88;5052742;28;19921;-73
2023/05/25 12:07:31;;;;;;;;;;;;;;;19.46;51.96;102728.31;5046410;28;19921;-73
2023/05/25 12:10:03;;;;;;;;;;;;;;;19.45;50.39;102729.25;5052488;28;19923;-73
2023/05/25 12:12:29;;;;;;;;;;;;;;;19.51;51.58;102729.06;5052581;28;19921;-73
2023/05/25 12:14:54;;;;;;;;;;;;;;;19.75;52.25;102727.50;5052415;28;19928;-74
2023/05/25 12:17:20;;;;;;;;;;;;;;;20.05;51.57;102716.72;5052443;28;19931;-74
2023/05/25 12:19:46;;;;;;;;;;;;;;;20.07;48.66;102713.03;5048441;28;19959;-74
2023/05/25 12:22:12;;;;;;;;;;;;;;;19.97;49.16;102708.88;5052258;28;20278;-74
2023/05/25 12:24:38;;;;;;;;;;;;;;;20.06;49.59;102715.81;5052186;28;20016;-74
2023/05/25 12:27:15;;;;;;;;;;;;;;;20.14;49.47;102721.81;5050692;28;20359;-74
2023/05/25 12:29:44;;;;;;;;;;;;;;;20.23;49.63;102710.75;5052136;28;19917;-74
2023/05/25 12:32:10;;;;;;;;;;;;;;;20.23;49.66;102709.84;5051912;28;19925;-74
2023/05/25 12:34:35;;;;;;;;;;;;;;;20.12;49.24;102713.78;5052084;28;19927;-75
2023/05/25 12:37:00;;;;;;;;;;;;;;;19.98;49.24;102703.47;5052080;28;19921;-75
2023/05/25 12:39:29;;;;;;;;;;;;;;;19.95;51.32;102708.06;5051844;28;19978;-74
2023/05/25 12:41:55;;;;;;;;;;;;;;;19.88;47.83;102707.38;5051625;28;20392;-73